createdAt,value
2018-02-10T00:01:23.118Z,101264.61
2018-02-10T00:03:51.560Z,101263.92
2018-02-10T00:06:20.115Z,101262.84
2018-02-10T00:08:48.460Z,101267.82
2018-02-10T00:11:16.874Z,101259.12
2018-02-10T00:13:45.321Z,101263.90
2018-02-10T00:16:13.693Z,101266.18
2018-02-10T00:18:41.999Z,101261.50
2018-02-10T00:21:10.315Z,101267.53
2018-02-10T00:23:38.646Z,101270.77
2018-02-10T00:26:07.046Z,101273.49
2018-02-10T00:28:35.371Z,101269.64
2018-02-10T00:31:03.707Z,101270.88
2018-02-10T00:33:32.053Z,101270.28
2018-02-10T00:36:00.425Z,101275.16
2018-02-10T00:38:28.970Z,101277.34
2018-02-10T00:40:57.351Z,101277.87
2018-02-10T00:43:27.457Z,101282.00
2018-02-10T00:45:57.373Z,101276.70
2018-02-10T00:48:25.669Z,101280.51
2018-02-10T00:50:54.013Z,101277.77
2018-02-10T00:53:22.361Z,101280.89
2018-02-10T00:55:50.686Z,101280.08
2018-02-10T00:58:19.246Z,101279.88
2018-02-10T01:00:47.598Z,101282.88
2018-02-10T01:03:15.886Z,101278.00
2018-02-10T01:05:44.349Z,101274.27
2018-02-10T01:08:12.690Z,101278.27
2018-02-10T01:10:41.121Z,101273.92
2018-02-10T01:13:09.439Z,101272.82
2018-02-10T01:15:37.894Z,101274.87
2018-02-10T01:19:09.275Z,101275.31
2018-02-10T01:21:37.636Z,101273.24
2018-02-10T01:24:05.965Z,101269.17
2018-02-10T01:26:34.310Z,101274.15
2018-02-10T01:29:02.710Z,101276.61
2018-02-10T01:31:31.062Z,101273.92
2018-02-10T01:33:59.395Z,101280.27
2018-02-10T01:36:27.843Z,101280.98
2018-02-10T01:38:56.229Z,101277.97
2018-02-10T01:41:24.998Z,101274.47
2018-02-10T01:43:53.287Z,101277.05
2018-02-10T01:46:21.646Z,101270.62
2018-02-10T01:48:49.950Z,101268.55
2018-02-10T01:51:18.327Z,101271.97
2018-02-10T01:53:46.729Z,101270.73
2018-02-10T01:56:15.223Z,101270.02
2018-02-10T01:58:43.682Z,101265.78
2018-02-10T02:01:12.004Z,101271.22
2018-02-10T02:03:40.539Z,101274.34
2018-02-10T02:06:08.940Z,101273.52
2018-02-10T02:08:37.398Z,101269.49
2018-02-10T02:11:05.758Z,101273.84
2018-02-10T02:13:34.055Z,101270.73
2018-02-10T02:16:02.383Z,101268.17
2018-02-10T02:18:30.777Z,101271.79
2018-02-10T02:20:59.452Z,101263.69
2018-02-10T02:23:27.778Z,101266.30
2018-02-10T02:25:56.204Z,101261.84
2018-02-10T02:28:24.610Z,101261.09
2018-02-10T02:30:53.056Z,101260.08
2018-02-10T02:33:21.507Z,101259.05
2018-02-10T02:35:49.837Z,101252.60
2018-02-10T02:38:18.318Z,101254.90
2018-02-10T02:40:46.963Z,101258.52
2018-02-10T02:43:15.323Z,101259.44
2018-02-10T02:45:43.674Z,101257.24
2018-02-10T02:48:12.213Z,101252.41
2018-02-10T02:50:40.535Z,101248.17
2018-02-10T02:53:08.925Z,101250.75
2018-02-10T02:55:37.256Z,101244.55
2018-02-10T02:58:05.600Z,101243.81
2018-02-10T03:00:33.906Z,101243.48
2018-02-10T03:03:02.203Z,101239.86
2018-02-10T03:05:30.672Z,101233.61
2018-02-10T03:07:58.994Z,101233.87
2018-02-10T03:10:27.314Z,101240.47
2018-02-10T03:12:55.636Z,101233.86
2018-02-10T03:15:24.806Z,101236.23
2018-02-10T03:17:54.319Z,101229.92
2018-02-10T03:20:22.700Z,101233.23
2018-02-10T03:22:51.105Z,101227.93
2018-02-10T03:25:19.419Z,101232.36
2018-02-10T03:27:47.751Z,101235.04
2018-02-10T03:30:18.256Z,101234.52
2018-02-10T03:32:47.760Z,101234.02
2018-02-10T03:35:17.561Z,101237.61
2018-02-10T03:37:46.005Z,101242.55
2018-02-10T03:40:14.377Z,101239.22
2018-02-10T03:42:42.786Z,101238.86
2018-02-10T03:45:11.152Z,101239.94
2018-02-10T03:47:39.439Z,101232.80
2018-02-10T03:50:07.790Z,101234.22
2018-02-10T03:52:36.235Z,101237.13
2018-02-10T03:55:04.626Z,101238.52
2018-02-10T03:57:32.975Z,101241.22
2018-02-10T04:00:01.229Z,101237.05
2018-02-10T04:02:29.575Z,101238.84
2018-02-10T04:04:58.022Z,101244.83
2018-02-10T04:07:26.538Z,101245.77
2018-02-10T04:09:54.814Z,101241.95
2018-02-10T04:12:23.231Z,101247.74
2018-02-10T04:14:51.808Z,101248.36
2018-02-10T04:17:20.269Z,101249.08
2018-02-10T04:19:48.551Z,101255.28
2018-02-10T04:22:16.910Z,101248.86
2018-02-10T04:24:45.219Z,101245.58
2018-02-10T04:27:13.617Z,101239.94
2018-02-10T04:29:42.034Z,101242.95
2018-02-10T04:32:10.430Z,101233.73
2018-02-10T04:34:38.711Z,101237.70
2018-02-10T04:37:07.082Z,101228.05
2018-02-10T04:39:35.446Z,101229.20
2018-02-10T04:42:03.779Z,101233.83
2018-02-10T04:44:32.102Z,101230.56
2018-02-10T04:47:00.416Z,101226.80
2018-02-10T04:49:28.686Z,101234.69
2018-02-10T04:51:57.146Z,101238.62
2018-02-10T04:54:26.224Z,101232.94
2018-02-10T04:56:54.603Z,101235.09
2018-02-10T04:59:22.906Z,101242.87
2018-02-10T05:07:42.442Z,101242.34
2018-02-10T05:10:11.007Z,101242.05
2018-02-10T05:12:39.569Z,101253.42
2018-02-10T05:15:08.292Z,101247.20
2018-02-10T05:17:36.991Z,101246.28
2018-02-10T05:20:07.183Z,101242.16
2018-02-10T05:22:35.701Z,101244.95
2018-02-10T05:25:04.432Z,101247.83
2018-02-10T05:27:33.334Z,101249.05
2018-02-10T05:30:02.002Z,101247.24
2018-02-10T05:32:30.873Z,101246.41
2018-02-10T05:34:59.561Z,101249.22
2018-02-10T05:37:28.156Z,101254.49
2018-02-10T05:39:56.639Z,101257.09
2018-02-10T05:42:25.552Z,101261.12
2018-02-10T05:44:54.044Z,101256.47
2018-02-10T05:47:22.579Z,101257.28
2018-02-10T05:49:51.356Z,101254.28
2018-02-10T05:52:19.973Z,101259.69
2018-02-10T05:54:48.895Z,101261.31
2018-02-10T05:57:18.161Z,101269.84
2018-02-10T05:59:47.115Z,101276.45
2018-02-10T06:02:16.188Z,101273.12
2018-02-10T06:04:44.696Z,101270.02
2018-02-10T06:07:13.348Z,101268.56
2018-02-10T06:09:42.704Z,101269.70
2018-02-10T06:12:11.515Z,101275.41
2018-02-10T06:14:41.022Z,101268.16
2018-02-10T06:17:09.768Z,101271.07
2018-02-10T06:19:40.464Z,101284.52
2018-02-10T06:22:10.896Z,101281.53
2018-02-10T06:24:40.404Z,101286.30
2018-02-10T06:27:09.781Z,101282.05
2018-02-10T06:29:38.364Z,101284.63
2018-02-10T06:32:07.715Z,101282.36
2018-02-10T06:34:42.817Z,101283.83
2018-02-10T06:37:17.935Z,101287.02
2018-02-10T06:39:46.794Z,101284.76
2018-02-10T06:42:15.357Z,101293.75
2018-02-10T06:44:43.997Z,101301.02
2018-02-10T06:47:12.609Z,101302.67
2018-02-10T06:49:41.215Z,101304.73
2018-02-10T06:52:09.704Z,101297.80
2018-02-10T06:54:38.389Z,101302.78
2018-02-10T06:57:07.311Z,101308.98
2018-02-10T06:59:35.979Z,101301.34
2018-02-10T07:08:52.223Z,101310.14
2018-02-10T07:11:20.991Z,101312.84
2018-02-10T07:13:49.815Z,101306.09
2018-02-10T07:16:18.402Z,101304.24
2018-02-10T07:18:47.532Z,101304.31
2018-02-10T07:21:16.110Z,101309.08
2018-02-10T07:23:44.564Z,101311.91
2018-02-10T07:26:13.231Z,101318.34
2018-02-10T07:28:41.809Z,101316.55
2018-02-10T07:31:10.404Z,101314.14
2018-02-10T07:33:39.260Z,101316.88
2018-02-10T07:36:07.779Z,101314.58
2018-02-10T07:38:36.288Z,101309.83
2018-02-10T07:41:04.848Z,101315.18
2018-02-10T07:43:33.433Z,101320.91
2018-02-10T07:46:02.300Z,101319.14
2018-02-10T07:48:31.168Z,101322.44
2018-02-10T07:50:59.919Z,101329.48
2018-02-10T07:53:28.487Z,101326.59
2018-02-10T07:55:56.988Z,101324.87
2018-02-10T07:58:25.548Z,101321.75
2018-02-10T08:00:54.080Z,101325.80
2018-02-10T08:03:22.864Z,101320.69
2018-02-10T08:05:51.365Z,101328.59
2018-02-10T08:08:20.097Z,101331.03
2018-02-10T08:10:48.636Z,101328.52
2018-02-10T08:13:17.223Z,101330.21
2018-02-10T08:15:45.958Z,101336.53
2018-02-10T08:18:14.521Z,101334.38
2018-02-10T08:20:43.117Z,101338.41
2018-02-10T08:23:11.637Z,101338.20
2018-02-10T08:25:40.248Z,101332.80
2018-02-10T08:28:08.916Z,101335.91
2018-02-10T08:30:37.420Z,101335.17
2018-02-10T08:33:06.276Z,101329.47
2018-02-10T08:35:34.804Z,101321.99
2018-02-10T08:38:03.509Z,101326.16
2018-02-10T08:40:32.154Z,101325.63
2018-02-10T08:43:00.722Z,101325.42
2018-02-10T08:45:29.523Z,101323.53
2018-02-10T08:47:57.993Z,101327.77
2018-02-10T08:50:26.708Z,101329.64
2018-02-10T08:52:55.338Z,101316.47
2018-02-10T08:55:23.889Z,101315.00
2018-02-10T08:57:52.502Z,101312.89
2018-02-10T09:00:21.224Z,101309.27
2018-02-10T09:02:49.903Z,101317.52
2018-02-10T09:05:18.606Z,101312.44
2018-02-10T09:07:47.454Z,101308.98
2018-02-10T09:10:15.968Z,101310.33
2018-02-10T09:12:44.555Z,101313.06
2018-02-10T09:15:13.093Z,101314.20
2018-02-10T09:17:43.855Z,101321.06
2018-02-10T09:20:13.347Z,101322.23
2018-02-10T09:22:42.023Z,101324.38
2018-02-10T09:25:11.679Z,101317.39
2018-02-10T09:27:40.384Z,101322.24
2018-02-10T09:30:08.923Z,101319.37
2018-02-10T09:32:37.646Z,101325.78
2018-02-10T09:35:06.308Z,101331.84
2018-02-10T09:37:34.972Z,101331.32
2018-02-10T09:40:03.784Z,101335.30
2018-02-10T09:42:32.350Z,101330.42
2018-02-10T09:45:01.069Z,101331.14
2018-02-10T09:47:29.762Z,101320.37
2018-02-10T09:49:58.399Z,101317.22
2018-02-10T09:52:26.912Z,101315.31
2018-02-10T09:54:55.643Z,101318.19
2018-02-10T09:57:24.284Z,101311.98
2018-02-10T09:59:52.792Z,101303.64
2018-02-10T10:02:21.500Z,101307.72
2018-02-10T10:04:50.040Z,101305.51
2018-02-10T10:07:18.604Z,101306.76
2018-02-10T10:09:47.205Z,101300.38
2018-02-10T10:12:15.778Z,101306.06
2018-02-10T10:14:45.468Z,101308.13
2018-02-10T10:17:13.984Z,101301.42
2018-02-10T10:19:42.500Z,101298.87
2018-02-10T10:22:11.016Z,101299.80
2018-02-10T10:24:39.564Z,101297.36
2018-02-10T10:27:08.127Z,101305.81
2018-02-10T10:29:36.944Z,101301.23
2018-02-10T10:32:05.664Z,101297.09
2018-02-10T10:34:34.124Z,101300.30
2018-02-10T10:37:02.735Z,101298.86
2018-02-10T10:39:31.280Z,101292.98
2018-02-10T10:42:06.688Z,101297.80
2018-02-10T10:44:35.268Z,101304.42
2018-02-10T10:47:03.929Z,101299.80
2018-02-10T10:49:32.811Z,101294.37
2018-02-10T10:52:01.497Z,101286.32
2018-02-10T10:54:30.244Z,101281.89
2018-02-10T10:56:59.280Z,101277.11
2018-02-10T10:59:27.833Z,101275.91
2018-02-10T11:01:57.846Z,101274.23
2018-02-10T11:04:26.481Z,101270.33
2018-02-10T11:06:55.016Z,101272.98
2018-02-10T11:09:24.431Z,101265.71
2018-02-10T11:11:52.936Z,101258.67
2018-02-10T11:14:21.500Z,101261.28
2018-02-10T11:16:50.202Z,101249.90
2018-02-10T11:19:19.151Z,101252.73
2018-02-10T11:21:47.782Z,101246.03
2018-02-10T11:24:16.285Z,101245.75
2018-02-10T11:26:44.961Z,101242.20
2018-02-10T11:29:13.444Z,101236.84
2018-02-10T11:31:42.129Z,101230.56
2018-02-10T11:34:10.616Z,101226.45
2018-02-10T11:36:39.144Z,101228.61
2018-02-10T11:39:07.979Z,101219.95
2018-02-10T11:41:36.702Z,101213.27
2018-02-10T11:44:05.197Z,101208.48
2018-02-10T11:46:34.023Z,101215.69
2018-02-10T11:49:02.557Z,101210.02
2018-02-10T11:51:31.084Z,101210.42
2018-02-10T11:54:00.491Z,101197.89
2018-02-10T11:56:29.181Z,101199.91
2018-02-10T11:58:58.071Z,101198.52
2018-02-10T12:01:26.979Z,101180.94
2018-02-10T12:03:55.588Z,101176.61
2018-02-10T12:06:24.324Z,101175.22
2018-02-10T12:08:52.972Z,101169.23
2018-02-10T12:11:21.693Z,101173.98
2018-02-10T12:13:50.216Z,101177.74
2018-02-10T12:16:18.944Z,101167.36
2018-02-10T12:18:47.411Z,101165.37
2018-02-10T12:21:16.028Z,101169.26
2018-02-10T12:23:44.695Z,101165.93
2018-02-10T12:26:13.398Z,101165.34
2018-02-10T12:28:42.049Z,101165.63
2018-02-10T12:31:10.564Z,101165.84
2018-02-10T12:33:39.207Z,101152.91
2018-02-10T12:36:07.754Z,101155.86
2018-02-10T12:38:36.444Z,101170.30
2018-02-10T12:41:05.325Z,101157.71
2018-02-10T12:43:33.924Z,101158.53
2018-02-10T12:46:02.441Z,101154.20
2018-02-10T12:48:36.365Z,101149.14
2018-02-10T12:51:05.383Z,101144.02
2018-02-10T12:53:34.597Z,101146.98
2018-02-10T12:56:03.379Z,101145.28
2018-02-10T12:58:32.308Z,101141.69
2018-02-10T13:01:00.853Z,101140.08
2018-02-10T13:03:29.623Z,101149.77
2018-02-10T13:05:58.513Z,101139.22
2018-02-10T13:08:27.442Z,101143.47
2018-02-10T13:10:56.236Z,101146.44
2018-02-10T13:13:25.153Z,101145.08
2018-02-10T13:15:53.674Z,101151.06
2018-02-10T13:18:22.196Z,101147.51
2018-02-10T13:20:50.708Z,101144.73
2018-02-10T13:23:19.503Z,101152.58
2018-02-10T13:25:48.067Z,101139.47
2018-02-10T13:28:17.132Z,101147.56
2018-02-10T13:30:45.784Z,101145.69
2018-02-10T13:33:14.673Z,101146.62
2018-02-10T13:35:43.358Z,101146.37
2018-02-10T13:38:11.893Z,101133.07
2018-02-10T13:40:40.616Z,101131.28
2018-02-10T13:43:09.189Z,101134.34
2018-02-10T13:45:37.915Z,101125.66
2018-02-10T13:48:06.972Z,101131.71
2018-02-10T13:50:35.612Z,101127.20
2018-02-10T13:53:04.116Z,101132.52
2018-02-10T13:55:32.754Z,101131.71
2018-02-10T13:58:01.600Z,101125.69
2018-02-10T14:00:30.129Z,101123.77
2018-02-10T14:02:58.601Z,101119.03
2018-02-10T14:05:27.608Z,101119.94
2018-02-10T14:07:56.301Z,101116.77
2018-02-10T14:10:25.365Z,101120.91
2018-02-10T14:12:54.401Z,101126.02
2018-02-10T14:15:23.672Z,101117.94
2018-02-10T14:17:52.981Z,101116.88
2018-02-10T14:20:22.077Z,101114.42
2018-02-10T14:22:50.911Z,101118.67
2018-02-10T14:25:19.745Z,101119.19
2018-02-10T14:27:48.232Z,101120.12
2018-02-10T14:30:16.981Z,101124.60
2018-02-10T14:32:45.704Z,101122.94
2018-02-10T14:35:14.692Z,101120.05
2018-02-10T14:37:43.280Z,101125.81
2018-02-10T14:40:12.049Z,101121.90
2018-02-10T14:42:40.890Z,101120.78
2018-02-10T14:45:10.252Z,101120.96
2018-02-10T14:47:38.755Z,101113.58
2018-02-10T14:50:07.620Z,101109.40
2018-02-10T14:52:36.810Z,101110.94
2018-02-10T14:55:05.422Z,101108.23
2018-02-10T14:57:34.133Z,101115.54
2018-02-10T15:00:03.049Z,101108.27
2018-02-10T15:02:32.508Z,101098.81
2018-02-10T15:05:01.097Z,101094.63
2018-02-10T15:07:31.680Z,101108.83
2018-02-10T15:10:02.370Z,101102.74
2018-02-10T15:12:32.720Z,101101.06
2018-02-10T15:15:04.096Z,101107.98
2018-02-10T15:17:32.762Z,101105.00
2018-02-10T15:20:01.279Z,101095.25
2018-02-10T15:22:29.890Z,101096.86
2018-02-10T15:24:58.529Z,101102.80
2018-02-10T15:27:27.992Z,101102.17
2018-02-10T15:30:05.441Z,101096.12
2018-02-10T15:32:45.165Z,101102.48
2018-02-10T15:35:17.200Z,101101.66
2018-02-10T15:37:45.683Z,101101.13
2018-02-10T15:40:14.192Z,101114.02
2018-02-10T15:42:42.728Z,101107.84
2018-02-10T15:45:11.267Z,101108.16
2018-02-10T15:47:39.845Z,101105.59
2018-02-10T15:50:08.584Z,101100.28
2018-02-10T15:52:39.040Z,101102.33
2018-02-10T15:55:07.945Z,101098.69
2018-02-10T15:57:36.460Z,101094.20
2018-02-10T16:00:08.220Z,101094.33
2018-02-10T16:02:36.813Z,101091.11
2018-02-10T16:05:05.761Z,101088.23
2018-02-10T16:07:34.226Z,101087.67
2018-02-10T16:10:02.781Z,101090.55
2018-02-10T16:12:31.359Z,101088.36
2018-02-10T16:15:00.173Z,101098.70
2018-02-10T16:17:28.873Z,101090.58
2018-02-10T16:19:57.456Z,101092.13
2018-02-10T16:22:26.248Z,101093.14
2018-02-10T16:24:54.909Z,101093.34
2018-02-10T16:27:23.613Z,101102.92
2018-02-10T16:29:52.089Z,101095.83
2018-02-10T16:32:20.884Z,101098.14
2018-02-10T16:34:49.755Z,101104.36
2018-02-10T16:37:18.308Z,101105.38
2018-02-10T16:39:46.800Z,101106.12
2018-02-10T16:42:15.318Z,101108.41
2018-02-10T16:44:58.716Z,101107.06
2018-02-10T16:47:27.449Z,101105.68
2018-02-10T16:49:56.108Z,101093.53
2018-02-10T16:52:24.944Z,101091.41
2018-02-10T16:54:53.428Z,101082.09
2018-02-10T16:57:22.101Z,101082.91
2018-02-10T16:59:50.568Z,101087.77
2018-02-10T17:02:19.142Z,101087.52
2018-02-10T17:04:47.831Z,101092.52
2018-02-10T17:07:16.380Z,101087.35
2018-02-10T17:09:45.205Z,101085.91
2018-02-10T17:12:13.884Z,101085.17
2018-02-10T17:14:44.220Z,101076.75
2018-02-10T17:17:12.960Z,101075.89
2018-02-10T17:19:41.613Z,101072.44
2018-02-10T17:22:10.312Z,101066.42
2018-02-10T17:24:39.008Z,101075.56
2018-02-10T17:27:07.529Z,101065.76
2018-02-10T17:29:36.132Z,101067.39
2018-02-10T17:32:04.684Z,101063.03
2018-02-10T17:34:33.266Z,101064.46
2018-02-10T17:37:01.985Z,101057.67
2018-02-10T17:39:30.622Z,101059.60
2018-02-10T17:41:59.537Z,101053.00
2018-02-10T17:44:28.348Z,101057.06
2018-02-10T17:46:56.948Z,101059.88
2018-02-10T17:49:25.568Z,101052.75
2018-02-10T17:51:54.156Z,101056.81
2018-02-10T17:54:23.197Z,101055.20
2018-02-10T17:56:51.880Z,101056.34
2018-02-10T17:59:20.348Z,101060.06
2018-02-10T18:01:49.064Z,101062.88
2018-02-10T18:04:17.617Z,101066.72
2018-02-10T18:06:46.204Z,101067.77
2018-02-10T18:09:14.788Z,101057.63
2018-02-10T18:11:43.318Z,101063.98
2018-02-10T18:14:11.801Z,101060.62
2018-02-10T18:16:40.349Z,101055.16
2018-02-10T18:19:08.973Z,101055.57
2018-02-10T18:21:37.707Z,101060.23
2018-02-10T18:24:06.192Z,101054.52
2018-02-10T18:26:34.820Z,101057.80
2018-02-10T18:29:03.452Z,101056.23
2018-02-10T18:31:32.040Z,101044.85
2018-02-10T18:34:01.287Z,101046.78
2018-02-10T18:36:31.784Z,101047.72
2018-02-10T18:39:00.424Z,101041.78
2018-02-10T18:41:29.339Z,101037.22
2018-02-10T18:43:58.951Z,101036.13
2018-02-10T18:46:29.192Z,101034.30
2018-02-10T18:48:58.602Z,101025.42
2018-02-10T18:51:27.740Z,101025.62
2018-02-10T18:53:58.143Z,101021.78
2018-02-10T18:56:28.124Z,101022.66
2018-02-10T18:58:58.381Z,101022.83
2018-02-10T19:01:28.184Z,101017.44
2018-02-10T19:03:58.884Z,101018.16
2018-02-10T19:06:27.404Z,101012.77
2018-02-10T19:08:55.875Z,101015.89
2018-02-10T19:11:27.638Z,101012.36
2018-02-10T19:13:56.694Z,101014.64
2018-02-10T19:16:26.625Z,101011.73
2018-02-10T19:18:55.306Z,101009.33
2018-02-10T19:21:24.194Z,101007.25
2018-02-10T19:23:52.900Z,101011.81
2018-02-10T19:26:21.613Z,101005.27
2018-02-10T19:28:50.313Z,101002.39
2018-02-10T19:31:19.444Z,100998.42
2018-02-10T19:33:48.620Z,100993.70
2018-02-10T19:36:17.564Z,100994.70
2018-02-10T19:38:46.296Z,100999.92
2018-02-10T19:41:14.980Z,100994.78
2018-02-10T19:43:43.681Z,100992.77
2018-02-10T19:46:12.421Z,100986.06
2018-02-10T19:48:41.444Z,100979.64
2018-02-10T19:51:10.074Z,100978.59
2018-02-10T19:53:38.641Z,100974.31
2018-02-10T19:56:07.160Z,100968.86
2018-02-10T19:58:35.684Z,100965.59
2018-02-10T20:01:04.175Z,100964.22
2018-02-10T20:03:32.997Z,100965.33
2018-02-10T20:06:05.409Z,100967.50
2018-02-10T20:08:34.198Z,100961.22
2018-02-10T20:11:03.309Z,100965.00
2018-02-10T20:13:31.956Z,100957.38
2018-02-10T20:16:00.975Z,100951.86
2018-02-10T20:18:29.532Z,100955.02
2018-02-10T20:20:58.040Z,100956.36
2018-02-10T20:23:26.801Z,100957.61
2018-02-10T20:25:58.244Z,100960.75
2018-02-10T20:28:27.568Z,100962.98
2018-02-10T20:30:56.737Z,100961.33
2018-02-10T20:33:27.690Z,100959.31
2018-02-10T20:35:57.086Z,100951.13
2018-02-10T20:38:25.680Z,100960.70
2018-02-10T20:40:54.487Z,100957.63
2018-02-10T20:43:23.549Z,100955.34
2018-02-10T20:45:52.147Z,100954.24
2018-02-10T20:48:21.130Z,100948.42
2018-02-10T20:50:50.375Z,100947.07
2018-02-10T20:53:19.074Z,100947.59
2018-02-10T20:55:47.977Z,100942.19
2018-02-10T20:58:16.978Z,100945.74
2018-02-10T21:00:45.721Z,100941.83
2018-02-10T21:03:14.210Z,100944.17
2018-02-10T21:05:42.912Z,100948.39
2018-02-10T21:08:11.537Z,100943.78
2018-02-10T21:10:40.054Z,100942.43
2018-02-10T21:13:08.528Z,100942.77
2018-02-10T21:15:37.400Z,100943.31
2018-02-10T21:18:13.071Z,100942.37
2018-02-10T21:20:43.318Z,100943.13
2018-02-10T21:23:14.465Z,100938.82
2018-02-10T21:25:43.880Z,100935.59
2018-02-10T21:28:12.425Z,100929.72
2018-02-10T21:30:41.376Z,100924.89
2018-02-10T21:33:10.237Z,100924.78
2018-02-10T21:35:39.107Z,100923.70
2018-02-10T21:38:07.783Z,100923.77
2018-02-10T21:40:36.483Z,100918.96
2018-02-10T21:43:08.186Z,100911.27
2018-02-10T21:45:38.657Z,100911.30
2018-02-10T21:48:07.361Z,100913.75
2018-02-10T21:50:35.908Z,100910.19
2018-02-10T21:53:04.716Z,100901.39
2018-02-10T21:55:33.728Z,100901.83
2018-02-10T21:58:02.588Z,100896.65
2018-02-10T22:00:31.340Z,100901.13
2018-02-10T22:02:59.920Z,100896.67
2018-02-10T22:05:28.468Z,100890.36
2018-02-10T22:07:57.176Z,100890.97
2018-02-10T22:10:25.820Z,100886.58
2018-02-10T22:12:54.545Z,100881.39
2018-02-10T22:15:24.049Z,100873.39
2018-02-10T22:17:54.540Z,100868.41
2018-02-10T22:20:23.826Z,100865.84
2018-02-10T22:22:53.548Z,100860.32
2018-02-10T22:25:22.288Z,100858.03
2018-02-10T22:27:52.256Z,100857.59
2018-02-10T22:30:21.424Z,100854.48
2018-02-10T22:32:49.926Z,100847.18
2018-02-10T22:35:18.519Z,100841.55
2018-02-10T22:37:47.232Z,100839.76
2018-02-10T22:40:16.550Z,100840.41
2018-02-10T22:42:45.072Z,100830.03
2018-02-10T22:45:13.890Z,100832.94
2018-02-10T22:47:42.598Z,100830.17
2018-02-10T22:50:11.248Z,100834.36
2018-02-10T22:52:39.729Z,100831.89
2018-02-10T22:55:09.059Z,100825.42
2018-02-10T22:57:37.693Z,100820.14
2018-02-10T23:00:06.777Z,100818.56
2018-02-10T23:02:35.472Z,100816.87
2018-02-10T23:05:05.273Z,100810.36
2018-02-10T23:07:39.253Z,100804.17
2018-02-10T23:10:11.943Z,100804.06
2018-02-10T23:12:41.229Z,100797.04
2018-02-10T23:15:10.900Z,100791.09
2018-02-10T23:17:40.749Z,100798.12
2018-02-10T23:20:09.357Z,100786.69
2018-02-10T23:22:37.943Z,100785.25
2018-02-10T23:25:06.668Z,100782.77
2018-02-10T23:27:35.801Z,100780.89
2018-02-10T23:30:04.766Z,100782.77
2018-02-10T23:32:34.032Z,100783.59
2018-02-10T23:35:02.845Z,100787.95
2018-02-10T23:37:32.493Z,100785.90
2018-02-10T23:40:01.084Z,100786.20
2018-02-10T23:42:30.288Z,100782.67
2018-02-10T23:44:59.503Z,100781.95
2018-02-10T23:47:28.040Z,100777.45
2018-02-10T23:49:56.725Z,100779.02
2018-02-10T23:52:26.514Z,100774.14
2018-02-10T23:54:56.793Z,100772.08
2018-02-10T23:57:26.584Z,100770.98
2018-02-10T23:59:55.068Z,100774.50
